Espyville, Pennsylvania
Current Conditions -  °F | °C
As of 2:53 AM on Saturday 25 Oct 2014 (Local Time) from KGKJ Reporting Station
Overcast Overcast  
Wind Chill: 45°   Ceiling: 4100
Heat Index: 48°   Visibility: 9mi
Dew Point: 42°   Wind: 6mph
Humidity: 80%   Direction: 180°S
Pressure: 29.95"   Gusts: NA
Location:  41.6811°N, 80.4288°W
Report Text: KGKJ 250653Z AUTO 18005KT 9SM OVC041 09/06 A2995 RMK AO2 SLP144 T00890056 TSNO
Loading
Personal Weather Stations






























Interactive Weather Map
Tropical Storm Tracking
New forecast layout! Learn more

10-Day Weather Forecast

Advertisements
Track Severe Weather on mobile